createdAt,value
2017-07-08T00:00:26.313Z,5.85
2017-07-08T00:02:53.818Z,6.18
2017-07-08T00:05:21.312Z,6.22
2017-07-08T00:07:48.803Z,5.55
2017-07-08T00:10:16.341Z,6.82
2017-07-08T00:12:43.841Z,5.45
2017-07-08T00:15:11.349Z,5.43
2017-07-08T00:17:38.858Z,4.87
2017-07-08T00:20:06.357Z,4.50
2017-07-08T00:22:33.880Z,5.50
2017-07-08T00:25:01.407Z,5.60
2017-07-08T00:27:28.898Z,5.82
2017-07-08T00:29:56.414Z,5.37
2017-07-08T00:32:23.921Z,5.07
2017-07-08T00:34:51.422Z,5.32
2017-07-08T00:37:18.937Z,4.65
2017-07-08T00:39:46.435Z,4.85
2017-07-08T00:42:13.938Z,5.25
2017-07-08T00:44:41.428Z,4.80
2017-07-08T00:47:08.917Z,4.97
2017-07-08T00:49:36.409Z,5.47
2017-07-08T00:52:03.912Z,5.05
2017-07-08T00:54:31.399Z,5.45
2017-07-08T00:56:58.917Z,6.40
2017-07-08T00:59:26.417Z,5.70
2017-07-08T01:01:53.908Z,5.72
2017-07-08T01:04:21.416Z,6.10
2017-07-08T01:06:48.929Z,6.18
2017-07-08T01:09:16.449Z,5.45
2017-07-08T01:11:43.953Z,6.00
2017-07-08T01:14:11.486Z,5.10
2017-07-08T01:16:38.983Z,5.22
2017-07-08T01:19:06.484Z,5.57
2017-07-08T01:21:34.997Z,6.65
2017-07-08T01:24:02.496Z,6.55
2017-07-08T01:26:30.009Z,5.30
2017-07-08T01:28:57.527Z,6.65
2017-07-08T01:31:25.029Z,6.30
2017-07-08T01:33:53.574Z,6.43
2017-07-08T01:36:21.086Z,5.80
2017-07-08T01:38:49.557Z,6.72
2017-07-08T01:41:17.070Z,6.35
2017-07-08T01:43:44.581Z,6.12
2017-07-08T01:46:12.113Z,6.10
2017-07-08T01:48:39.610Z,5.47
2017-07-08T01:51:07.117Z,5.80
2017-07-08T01:53:34.620Z,5.87
2017-07-08T01:56:02.493Z,6.45
2017-07-08T01:58:30.037Z,6.12
2017-07-08T02:00:57.546Z,5.72
2017-07-08T02:03:25.076Z,6.80
2017-07-08T02:05:56.023Z,5.47
2017-07-08T02:08:23.515Z,6.12
2017-07-08T02:10:52.013Z,5.78
2017-07-08T02:13:19.522Z,5.80
2017-07-08T02:15:47.028Z,5.18
2017-07-08T02:18:14.530Z,5.35
2017-07-08T02:20:42.024Z,5.07
2017-07-08T02:23:09.540Z,5.40
2017-07-08T02:25:37.037Z,5.47
2017-07-08T02:28:04.536Z,5.32
2017-07-08T02:30:32.032Z,5.50
2017-07-08T02:32:59.529Z,5.07
2017-07-08T02:35:27.051Z,4.85
2017-07-08T02:37:54.557Z,5.30
2017-07-08T02:40:22.059Z,5.32
2017-07-08T02:42:49.554Z,5.37
2017-07-08T02:45:17.062Z,5.65
2017-07-08T02:47:44.582Z,5.30
2017-07-08T02:50:12.077Z,6.00
2017-07-08T02:52:39.626Z,5.78
2017-07-08T02:55:07.118Z,5.45
2017-07-08T02:57:34.609Z,5.60
2017-07-08T03:00:03.145Z,5.90
2017-07-08T03:02:30.647Z,5.93
2017-07-08T03:04:59.113Z,6.72
2017-07-08T03:07:26.660Z,6.80
2017-07-08T03:09:54.169Z,6.25
2017-07-08T03:12:21.691Z,6.68
2017-07-08T03:14:49.214Z,7.53
2017-07-08T03:17:16.717Z,8.35
2017-07-08T03:19:44.217Z,7.57
2017-07-08T03:22:11.721Z,7.82
2017-07-08T03:24:39.248Z,6.90
2017-07-08T03:27:06.742Z,7.15
2017-07-08T03:29:34.233Z,6.60
2017-07-08T03:32:01.770Z,7.70
2017-07-08T03:34:29.270Z,7.60
2017-07-08T03:36:57.788Z,6.93
2017-07-08T03:39:25.288Z,7.10
2017-07-08T03:41:52.777Z,7.40
2017-07-08T03:44:20.273Z,7.53
2017-07-08T03:46:47.775Z,7.00
2017-07-08T03:49:15.294Z,7.55
2017-07-08T03:51:42.801Z,7.50
2017-07-08T03:54:10.302Z,6.75
2017-07-08T03:56:37.816Z,7.50
2017-07-08T03:59:05.323Z,7.25
2017-07-08T04:01:32.882Z,8.18
2017-07-08T04:04:00.376Z,8.20
2017-07-08T04:06:27.877Z,9.05
2017-07-08T04:08:55.374Z,7.62
2017-07-08T04:11:22.876Z,7.45
2017-07-08T04:13:50.122Z,6.93
2017-07-08T04:16:17.622Z,8.50
2017-07-08T04:18:45.121Z,8.70
2017-07-08T04:21:12.618Z,8.05
2017-07-08T04:23:40.117Z,8.20
2017-07-08T04:26:08.676Z,8.25
2017-07-08T04:28:36.168Z,8.50
2017-07-08T04:31:03.678Z,7.72
2017-07-08T04:33:31.199Z,8.27
2017-07-08T04:35:58.698Z,7.40
2017-07-08T04:38:26.216Z,7.30
2017-07-08T04:40:53.738Z,8.00
2017-07-08T04:43:21.236Z,8.30
2017-07-08T04:45:48.737Z,6.97
2017-07-08T04:48:16.237Z,6.60
2017-07-08T04:50:43.768Z,7.97
2017-07-08T04:53:11.264Z,6.78
2017-07-08T04:55:38.763Z,7.12
2017-07-08T04:58:06.279Z,7.65
2017-07-08T05:00:33.777Z,7.20
2017-07-08T05:03:01.301Z,6.45
2017-07-08T05:05:28.801Z,6.93
2017-07-08T05:07:56.303Z,6.62
2017-07-08T05:10:23.806Z,6.20
2017-07-08T05:12:51.030Z,6.63
2017-07-08T05:15:18.265Z,5.60
2017-07-08T05:17:45.473Z,5.70
2017-07-08T05:20:12.673Z,5.27
2017-07-08T05:22:39.881Z,4.73
2017-07-08T05:25:07.385Z,5.50
2017-07-08T05:27:34.906Z,6.03
2017-07-08T05:30:02.117Z,5.50
2017-07-08T05:32:29.626Z,4.72
2017-07-08T05:34:57.126Z,5.30
2017-07-08T05:37:24.616Z,5.22
2017-07-08T05:39:52.133Z,4.75
2017-07-08T05:42:19.343Z,5.00
2017-07-08T05:44:46.849Z,4.53
2017-07-08T05:47:14.765Z,4.95
2017-07-08T05:49:41.991Z,4.70
2017-07-08T05:52:09.501Z,4.07
2017-07-08T05:54:36.712Z,4.53
2017-07-08T05:57:03.932Z,4.97
2017-07-08T05:59:31.163Z,4.60
2017-07-08T06:01:58.377Z,4.23
2017-07-08T06:04:25.594Z,3.83
2017-07-08T06:06:52.825Z,4.83
2017-07-08T06:09:20.029Z,4.30
2017-07-08T06:11:47.241Z,4.10
2017-07-08T06:14:14.452Z,4.07
2017-07-08T06:16:41.660Z,3.70
2017-07-08T06:19:09.822Z,3.63
2017-07-08T06:21:37.032Z,3.90
2017-07-08T06:24:04.238Z,3.97
2017-07-08T06:26:33.415Z,4.00
2017-07-08T06:29:00.628Z,3.23
2017-07-08T06:31:27.830Z,3.30
2017-07-08T06:33:55.032Z,4.00
2017-07-08T06:36:22.232Z,3.40
2017-07-08T06:38:51.381Z,3.30
2017-07-08T06:41:18.589Z,3.53
2017-07-08T06:43:45.798Z,3.47
2017-07-08T06:46:13.005Z,3.30
2017-07-08T06:48:40.219Z,3.60
2017-07-08T06:51:07.450Z,3.70
2017-07-08T06:53:34.654Z,3.73
2017-07-08T06:56:02.802Z,3.83
2017-07-08T06:58:30.009Z,3.83
2017-07-08T07:00:57.216Z,3.93
2017-07-08T07:03:26.378Z,4.40
2017-07-08T07:05:53.593Z,3.87
2017-07-08T07:08:20.800Z,3.50
2017-07-08T07:10:48.001Z,4.50
2017-07-08T07:13:15.213Z,4.50
2017-07-08T07:15:42.447Z,3.70
2017-07-08T07:18:09.662Z,3.70
2017-07-08T07:20:36.864Z,4.23
2017-07-08T07:23:04.073Z,3.93
2017-07-08T07:25:34.237Z,4.03
2017-07-08T07:28:01.680Z,3.30
2017-07-08T07:30:28.889Z,4.10
2017-07-08T07:32:56.094Z,3.67
2017-07-08T07:35:23.301Z,3.57
2017-07-08T07:37:51.437Z,3.07
2017-07-08T07:40:18.670Z,3.63
2017-07-08T07:42:45.872Z,4.30
2017-07-08T07:45:13.089Z,3.90
2017-07-08T07:47:40.293Z,4.03
2017-07-08T07:50:07.498Z,4.00
2017-07-08T07:52:34.724Z,4.00
2017-07-08T07:55:01.924Z,3.67
2017-07-08T07:57:29.133Z,3.90
2017-07-08T07:59:56.340Z,4.33
2017-07-08T08:02:24.508Z,4.23
2017-07-08T08:04:51.734Z,3.80
2017-07-08T08:07:18.942Z,3.40
2017-07-08T08:09:47.089Z,4.00
2017-07-08T08:12:14.310Z,4.03
2017-07-08T08:14:41.536Z,3.90
2017-07-08T08:17:08.775Z,3.87
2017-07-08T08:19:35.985Z,4.07
2017-07-08T08:22:03.197Z,4.10
2017-07-08T08:24:30.407Z,3.60
2017-07-08T08:26:57.607Z,3.70
2017-07-08T08:29:24.828Z,4.20
2017-07-08T08:31:52.057Z,4.10
2017-07-08T08:34:19.273Z,4.97
2017-07-08T08:36:46.485Z,4.20
2017-07-08T08:39:13.702Z,4.20
2017-07-08T08:41:40.936Z,4.70
2017-07-08T08:44:09.086Z,4.10
2017-07-08T08:46:36.298Z,4.67
2017-07-08T08:49:03.525Z,5.00
2017-07-08T08:51:30.795Z,4.57
2017-07-08T08:53:58.222Z,4.70
2017-07-08T08:56:25.425Z,4.57
2017-07-08T08:58:53.593Z,4.17
2017-07-08T09:01:20.800Z,3.30
2017-07-08T09:03:48.013Z,4.97
2017-07-08T09:06:17.164Z,4.43
2017-07-08T09:08:44.177Z,4.33
2017-07-08T09:11:11.403Z,4.23
2017-07-08T09:13:38.637Z,4.10
2017-07-08T09:16:05.849Z,4.03
2017-07-08T09:18:33.081Z,3.50
2017-07-08T09:21:00.289Z,3.70
2017-07-08T09:23:27.490Z,3.50
2017-07-08T09:25:54.706Z,3.90
2017-07-08T09:28:22.869Z,3.40
2017-07-08T09:30:50.093Z,4.10
2017-07-08T09:33:17.299Z,5.20
2017-07-08T09:35:44.505Z,4.10
2017-07-08T09:38:11.724Z,4.40
2017-07-08T09:40:39.872Z,4.20
2017-07-08T09:43:07.110Z,4.33
2017-07-08T09:45:34.326Z,3.90
2017-07-08T09:48:01.538Z,3.50
2017-07-08T09:50:28.752Z,4.50
2017-07-08T09:52:55.962Z,4.60
2017-07-08T09:55:23.194Z,4.00
2017-07-08T09:57:50.577Z,3.80
2017-07-08T10:00:17.805Z,4.70
2017-07-08T10:02:46.042Z,4.30
2017-07-08T10:05:13.277Z,4.90
2017-07-08T10:07:40.509Z,4.77
2017-07-08T10:10:07.734Z,5.20
2017-07-08T10:12:34.946Z,4.57
2017-07-08T10:15:02.159Z,5.20
2017-07-08T10:17:29.362Z,4.70
2017-07-08T10:19:56.594Z,5.37
2017-07-08T10:22:24.745Z,4.70
2017-07-08T10:24:51.945Z,5.27
2017-07-08T10:27:19.154Z,5.40
2017-07-08T10:29:46.364Z,5.80
2017-07-08T10:32:13.601Z,5.90
2017-07-08T10:34:40.810Z,5.57
2017-07-08T10:37:08.965Z,5.63
2017-07-08T10:39:36.177Z,5.70
2017-07-08T10:42:03.391Z,5.60
2017-07-08T10:44:32.565Z,6.43
2017-07-08T10:46:59.774Z,5.53
2017-07-08T10:49:26.982Z,6.50
2017-07-08T10:51:54.198Z,5.60
2017-07-08T10:54:21.409Z,5.90
2017-07-08T10:56:48.675Z,5.77
2017-07-08T10:59:16.821Z,5.23
2017-07-08T11:01:44.035Z,5.77
2017-07-08T11:04:11.248Z,6.13
2017-07-08T11:06:39.409Z,5.87
2017-07-08T11:09:06.634Z,5.67
2017-07-08T11:11:33.858Z,5.53
2017-07-08T11:14:01.075Z,5.70
2017-07-08T11:16:28.290Z,5.47
2017-07-08T11:18:55.501Z,6.20
2017-07-08T11:21:22.744Z,5.43
2017-07-08T11:23:49.958Z,5.10
2017-07-08T11:26:17.163Z,5.87
2017-07-08T11:28:44.372Z,6.03
2017-07-08T11:31:11.581Z,5.67
2017-07-08T11:33:38.836Z,5.70
2017-07-08T11:36:06.045Z,5.20
2017-07-08T11:38:33.257Z,4.80
2017-07-08T11:41:00.463Z,5.20
2017-07-08T11:43:27.665Z,4.73
2017-07-08T11:45:54.965Z,5.93
2017-07-08T11:48:22.393Z,5.10
2017-07-08T11:50:49.597Z,5.50
2017-07-08T11:53:16.816Z,5.33
2017-07-08T11:55:44.030Z,4.73
2017-07-08T11:58:11.265Z,4.50
2017-07-08T12:00:38.489Z,4.93
2017-07-08T12:03:05.708Z,4.17
2017-07-08T12:05:33.863Z,4.60
2017-07-08T12:08:01.073Z,4.60
2017-07-08T12:10:28.310Z,4.07
2017-07-08T12:12:56.474Z,3.50
2017-07-08T12:15:23.685Z,4.60
2017-07-08T12:17:50.888Z,4.40
2017-07-08T12:20:18.102Z,4.27
2017-07-08T12:22:45.318Z,5.60
2017-07-08T12:25:12.538Z,4.37
2017-07-08T12:27:39.744Z,3.90
2017-07-08T12:30:06.975Z,5.07
2017-07-08T12:32:34.211Z,4.03
2017-07-08T12:35:01.441Z,4.57
2017-07-08T12:37:28.662Z,3.80
2017-07-08T12:39:55.879Z,3.80
2017-07-08T12:42:23.084Z,4.33
2017-07-08T12:44:50.306Z,3.80
2017-07-08T12:47:17.515Z,3.47
2017-07-08T12:49:44.724Z,3.27
2017-07-08T12:52:12.872Z,2.73
2017-07-08T12:54:40.078Z,3.30
2017-07-08T12:57:07.313Z,3.70
2017-07-08T12:59:34.538Z,3.23
2017-07-08T13:02:01.758Z,3.43
2017-07-08T13:04:28.965Z,3.10
2017-07-08T13:06:57.105Z,3.40
2017-07-08T13:09:24.341Z,3.40
2017-07-08T13:11:51.552Z,2.80
2017-07-08T13:14:18.762Z,3.00
2017-07-08T13:16:45.973Z,2.80
2017-07-08T13:19:13.184Z,3.30
2017-07-08T13:21:40.418Z,3.30
2017-07-08T13:24:07.629Z,3.20
2017-07-08T13:26:34.834Z,2.87
2017-07-08T13:29:02.040Z,2.63
2017-07-08T13:31:29.608Z,3.13
2017-07-08T13:33:56.837Z,3.20
2017-07-08T13:36:24.054Z,3.17
2017-07-08T13:38:51.261Z,2.77
2017-07-08T13:41:18.488Z,2.30
2017-07-08T13:43:45.696Z,2.70
2017-07-08T13:46:14.881Z,3.13
2017-07-08T13:48:42.094Z,2.60
2017-07-08T13:51:09.309Z,2.90
2017-07-08T13:53:36.517Z,3.00
2017-07-08T13:56:03.721Z,2.63
2017-07-08T13:58:30.949Z,3.93
2017-07-08T14:00:58.153Z,2.30
2017-07-08T14:03:25.358Z,2.57
2017-07-08T14:05:53.545Z,3.00
2017-07-08T14:08:20.745Z,3.20
2017-07-08T14:10:49.899Z,2.47
2017-07-08T14:13:17.110Z,3.07
2017-07-08T14:15:44.326Z,2.63
2017-07-08T14:18:11.538Z,2.67
2017-07-08T14:20:38.746Z,2.80
2017-07-08T14:23:05.972Z,2.97
2017-07-08T14:25:33.184Z,3.03
2017-07-08T14:28:00.388Z,2.80
2017-07-08T14:30:27.605Z,3.67
2017-07-08T14:32:55.767Z,3.60
2017-07-08T14:35:22.996Z,3.70
2017-07-08T14:37:50.201Z,5.43
2017-07-08T14:40:17.413Z,4.97
2017-07-08T14:42:44.663Z,2.97
2017-07-08T14:45:11.883Z,3.23
2017-07-08T14:47:39.114Z,3.40
2017-07-08T14:50:06.334Z,3.37
2017-07-08T14:52:33.547Z,3.10
2017-07-08T14:55:00.750Z,3.97
2017-07-08T14:57:27.773Z,3.60
2017-07-08T14:59:55.026Z,3.30
2017-07-08T15:02:22.244Z,3.37
2017-07-08T15:04:49.454Z,4.07
2017-07-08T15:07:16.662Z,2.97
2017-07-08T15:09:43.878Z,3.70
2017-07-08T15:12:11.114Z,3.90
2017-07-08T15:14:38.321Z,3.80
2017-07-08T15:17:05.533Z,3.90
2017-07-08T15:19:32.740Z,3.00
2017-07-08T15:21:59.945Z,3.03
2017-07-08T15:24:27.173Z,3.73
2017-07-08T15:26:54.427Z,3.60
2017-07-08T15:29:21.649Z,3.27
2017-07-08T15:31:48.869Z,2.70
2017-07-08T15:34:16.080Z,2.70
2017-07-08T15:36:43.303Z,3.43
2017-07-08T15:39:10.509Z,3.00
2017-07-08T15:41:37.720Z,3.40
2017-07-08T15:44:05.853Z,3.30
2017-07-08T15:46:33.087Z,3.20
2017-07-08T15:49:00.318Z,3.57
2017-07-08T15:51:27.527Z,3.10
2017-07-08T15:53:54.737Z,3.20
2017-07-08T15:56:21.945Z,3.60
2017-07-08T15:58:49.162Z,10.30
2017-07-08T16:01:16.385Z,4.07
2017-07-08T16:03:43.597Z,2.73
2017-07-08T16:06:10.811Z,2.50
2017-07-08T16:08:38.981Z,2.80
2017-07-08T16:11:06.192Z,2.40
2017-07-08T16:13:33.649Z,2.33
2017-07-08T16:16:00.857Z,2.60
2017-07-08T16:18:28.073Z,2.40
2017-07-08T16:20:55.279Z,2.67
2017-07-08T16:23:22.494Z,3.10
2017-07-08T16:25:49.833Z,2.40
2017-07-08T16:28:17.046Z,2.33
2017-07-08T16:30:44.261Z,2.60
2017-07-08T16:33:11.482Z,2.43
2017-07-08T16:35:38.698Z,2.20
2017-07-08T16:38:05.942Z,3.53
2017-07-08T16:40:33.165Z,2.77
2017-07-08T16:43:00.396Z,2.80
2017-07-08T16:45:27.610Z,2.97
2017-07-08T16:47:54.827Z,3.40
2017-07-08T16:50:22.057Z,4.00
2017-07-08T16:52:49.267Z,3.90
2017-07-08T16:55:16.526Z,3.27
2017-07-08T16:57:43.733Z,4.00
2017-07-08T17:00:10.945Z,3.53
2017-07-08T17:02:38.405Z,3.87
2017-07-08T17:05:05.617Z,3.90
2017-07-08T17:07:32.831Z,3.73
2017-07-08T17:10:00.045Z,4.60
2017-07-08T17:12:27.253Z,4.13
2017-07-08T17:14:54.484Z,4.20
2017-07-08T17:17:22.650Z,4.00
2017-07-08T17:19:49.861Z,3.90
2017-07-08T17:22:17.095Z,4.40
2017-07-08T17:24:45.258Z,4.27
2017-07-08T17:27:12.487Z,4.70
2017-07-08T17:29:39.699Z,5.13
2017-07-08T17:32:07.850Z,4.30
2017-07-08T17:34:35.120Z,4.33
2017-07-08T17:37:02.344Z,5.40
2017-07-08T17:39:31.525Z,5.23
2017-07-08T17:41:58.750Z,4.17
2017-07-08T17:44:28.401Z,4.77
2017-07-08T17:46:55.649Z,5.77
2017-07-08T17:49:23.848Z,5.13
2017-07-08T17:51:51.101Z,6.70
2017-07-08T17:54:18.369Z,5.10
2017-07-08T17:56:45.579Z,5.77
2017-07-08T17:59:12.801Z,5.17
2017-07-08T18:01:40.025Z,5.17
2017-07-08T18:04:09.203Z,5.90
2017-07-08T18:06:36.414Z,6.20
2017-07-08T18:09:03.647Z,4.77
2017-07-08T18:11:31.806Z,5.67
2017-07-08T18:13:59.041Z,5.13
2017-07-08T18:16:26.284Z,6.03
2017-07-08T18:18:53.511Z,5.30
2017-07-08T18:21:20.722Z,5.07
2017-07-08T18:23:47.977Z,4.17
2017-07-08T18:26:15.197Z,4.40
2017-07-08T18:28:44.063Z,5.20
2017-07-08T18:31:11.294Z,4.73
2017-07-08T18:33:38.513Z,5.00
2017-07-08T18:36:06.219Z,5.27
2017-07-08T18:38:33.445Z,4.43
2017-07-08T18:41:00.660Z,5.43
2017-07-08T18:43:27.866Z,4.70
2017-07-08T18:45:55.077Z,5.07
2017-07-08T18:48:23.256Z,5.43
2017-07-08T18:50:50.488Z,4.63
2017-07-08T18:53:17.711Z,4.90
2017-07-08T18:55:45.869Z,4.93
2017-07-08T18:58:13.095Z,5.10
2017-07-08T19:00:40.318Z,4.93
2017-07-08T19:03:07.549Z,4.30
2017-07-08T19:05:34.775Z,4.90
2017-07-08T19:08:02.000Z,4.83
2017-07-08T19:10:30.177Z,4.87
2017-07-08T19:12:57.402Z,7.00
2017-07-08T19:15:24.645Z,6.87
2017-07-08T19:17:51.866Z,5.57
2017-07-08T19:20:19.086Z,4.60
2017-07-08T19:22:46.314Z,4.73
2017-07-08T19:25:13.535Z,12.33
2017-07-08T19:27:40.782Z,34.27
2017-07-08T19:30:08.001Z,9.00
2017-07-08T19:32:35.227Z,6.93
2017-07-08T19:35:03.162Z,5.50
2017-07-08T19:37:31.333Z,5.13
2017-07-08T19:39:58.593Z,5.20
2017-07-08T19:42:25.818Z,7.57
2017-07-08T19:44:53.049Z,5.20
2017-07-08T19:47:20.261Z,4.90
2017-07-08T19:49:47.486Z,4.20
2017-07-08T19:52:14.729Z,3.70
2017-07-08T19:54:41.962Z,3.50
2017-07-08T19:57:09.205Z,4.20
2017-07-08T19:59:36.426Z,3.37
2017-07-08T20:02:03.640Z,3.53
2017-07-08T20:04:30.874Z,2.50
2017-07-08T20:06:58.103Z,3.17
2017-07-08T20:09:25.326Z,3.50
2017-07-08T20:11:52.550Z,3.50
2017-07-08T20:14:19.777Z,3.27
2017-07-08T20:16:47.032Z,3.50
2017-07-08T20:19:14.250Z,3.07
2017-07-08T20:21:41.470Z,2.80
2017-07-08T20:24:08.685Z,2.50
2017-07-08T20:26:35.905Z,3.03
2017-07-08T20:29:03.161Z,2.87
2017-07-08T20:31:30.378Z,3.17
2017-07-08T20:33:57.607Z,3.37
2017-07-08T20:36:24.852Z,5.77
2017-07-08T20:38:52.092Z,2.63
2017-07-08T20:41:21.289Z,2.30
2017-07-08T20:43:48.321Z,2.50
2017-07-08T20:46:15.537Z,3.00
2017-07-08T20:48:42.777Z,2.80
2017-07-08T20:51:09.993Z,2.13
2017-07-08T20:53:37.251Z,2.63
2017-07-08T20:56:04.477Z,2.40
2017-07-08T20:58:32.614Z,2.53
2017-07-08T21:00:59.829Z,2.23
2017-07-08T21:03:27.997Z,1.97
2017-07-08T21:05:55.237Z,2.57
2017-07-08T21:08:22.455Z,2.77
2017-07-08T21:10:50.610Z,2.30
2017-07-08T21:13:17.830Z,2.73
2017-07-08T21:15:45.050Z,2.60
2017-07-08T21:18:14.227Z,2.47
2017-07-08T21:20:41.453Z,2.90
2017-07-08T21:23:08.669Z,2.60
2017-07-08T21:25:36.992Z,2.10
2017-07-08T21:28:04.203Z,1.80
2017-07-08T21:30:31.469Z,2.27
2017-07-08T21:32:58.681Z,1.87
2017-07-08T21:35:25.897Z,2.23
2017-07-08T21:37:53.106Z,2.37
2017-07-08T21:40:20.325Z,1.80
2017-07-08T21:42:47.563Z,2.33
2017-07-08T21:45:15.514Z,1.80
2017-07-08T21:47:42.739Z,2.10
2017-07-08T21:50:09.964Z,1.70
2017-07-08T21:52:37.178Z,1.80
2017-07-08T21:55:04.416Z,1.70
2017-07-08T21:57:31.637Z,2.10
2017-07-08T21:59:58.854Z,2.80
2017-07-08T22:02:26.061Z,2.23
2017-07-08T22:04:53.265Z,2.07
2017-07-08T22:07:20.510Z,2.20
2017-07-08T22:09:47.717Z,3.47
2017-07-08T22:12:15.895Z,1.50
2017-07-08T22:14:43.110Z,2.50
2017-07-08T22:17:10.334Z,2.40
2017-07-08T22:19:37.571Z,2.73
2017-07-08T22:22:04.800Z,2.57
2017-07-08T22:24:33.371Z,1.80
2017-07-08T22:27:00.626Z,1.77
2017-07-08T22:29:27.895Z,3.30
2017-07-08T22:31:55.181Z,3.63
2017-07-08T22:34:22.441Z,2.77
2017-07-08T22:36:49.700Z,3.70
2017-07-08T22:39:16.964Z,3.27
2017-07-08T22:41:44.219Z,2.37
2017-07-08T22:44:11.556Z,1.83
2017-07-08T22:46:38.840Z,2.10
2017-07-08T22:49:06.111Z,2.60
2017-07-08T22:51:33.370Z,2.43
2017-07-08T22:54:00.624Z,1.70
2017-07-08T22:56:27.937Z,3.80
2017-07-08T22:58:55.215Z,4.27
2017-07-08T23:01:22.470Z,3.17
2017-07-08T23:03:49.719Z,2.10
2017-07-08T23:06:17.931Z,2.57
2017-07-08T23:08:45.227Z,3.70
2017-07-08T23:11:13.273Z,2.47
2017-07-08T23:13:40.536Z,2.17
2017-07-08T23:16:07.827Z,2.00
2017-07-08T23:18:35.088Z,2.30
2017-07-08T23:21:02.397Z,2.20
2017-07-08T23:23:30.626Z,2.47
2017-07-08T23:25:57.889Z,1.90
2017-07-08T23:28:25.147Z,2.17
2017-07-08T23:30:52.407Z,1.93
2017-07-08T23:33:19.688Z,2.00
2017-07-08T23:35:46.951Z,1.90
2017-07-08T23:38:14.383Z,2.13
2017-07-08T23:40:41.643Z,2.40
2017-07-08T23:43:08.896Z,2.20
2017-07-08T23:45:36.175Z,2.10
2017-07-08T23:48:04.155Z,2.37
2017-07-08T23:50:31.419Z,2.20
2017-07-08T23:52:58.675Z,2.20
2017-07-08T23:55:25.951Z,2.03
2017-07-08T23:57:53.253Z,2.20
